Sheridan, MO (64486)

12:57 PM CDT on April 28, 2017 (GMT -0500)
Bedison MO | | Change Station

Elev 1033 ft 40.31 °N, 94.80 °W | Updated 1 minute ago

Rain
Rain
41.0 °F
Feels Like 35 °F
N
9.0
Wind Variable Wind from NNE
Gusts 13.0 mph

Today
High -- | Low -- °F
--% Chance of Precip.
Yesterday
High -- | Low -- °F
Precip. -- in
Pressure 29.80 in
Visibility 3.0 miles
Clouds Mostly Cloudy 1000 ft
Mostly Cloudy 1400 ft
Windchill 35 °F
Dew Point 41 °F
Humidity 100%
Rainfall 0.64 in
Snow Depth Not available.
6:20 AM 8:11 PM
Waxing Crescent, 7% visible
METAR KICL 281755Z AUTO 06016KT 3SM BR BKN010 BKN014 04/04 A2980 RMK AO2 P0007 PWINO
Pressure 29.80 in
Visibility 3.0 miles
Clouds Mostly Cloudy 1000 ft
Mostly Cloudy 1400 ft
Windchill 35 °F
Dew Point 41 °F
Humidity 100%
Rainfall 0.64 in
Snow Depth Not available.
6:20 AM 8:11 PM
Waxing Crescent, 7% visible
METAR KICL 281755Z AUTO 06016KT 3SM BR BKN010 BKN014 04/04 A2980 RMK AO2 P0007 PWINO

Get Severe Weather Alerts

Thanks for signing up!

Be on the lookout for a verification email in your inbox.

You'll start receiving the daily forecast at 8 AM.

×

10-Day Weather Forecast

Almanac

Astronomy

Apr. 28, 2017 Rise Set
Actual Time
Civil Twilight
Nautical Twilight
Astronomical Twilight
Moon
Length of Visible Light
Length of Day
Tomorrow will be .
, % of the Moon is Illuminated

Today's Extremes

State Highs State Lows

Community

WunderPhotos

WunderBlog® & News

Nearby

Air Quality

  Air Quality AQ Index Pollutant
Not available.

Snow Depth

Station Depth Elevation

Earthquake Activity

City Distance Mag. Time & Date
Minimum magnitude displayed is 2.5.

Coastal Water Temperatures

Place Temperature

Stations

Nearby Weather Stations

Station Location Temp. Windchill Dew Point Humidity Wind Precip. Elev Updated Type
                   

Watches & Warnings

There are currently no watches in effect.